Time;durP1;ratioP1;P1;durP2;ratioP2;P2;SDS_P1;SDS_P2;PMS_P1;PMS_P2;Temp;Humidity;BMP_temperature;BMP_pressure;BME280_temperature;BME280_humidity;BME280_pressure;Samples;Min_cycle;Max_cycle;Signal;HPM_P1;HPM_P2
2023/01/15 00:01:35;;;;;;;13.88;2.03;;;7.30;99.90;;;;;;4860567;29;20058;-90
2023/01/15 00:04:04;;;;;;;9.40;1.73;;;7.20;99.90;;;;;;4844931;29;20554;-89
2023/01/15 00:06:33;;;;;;;12.85;1.75;;;7.20;99.90;;;;;;4859648;29;20090;-89
2023/01/15 00:09:00;;;;;;;11.35;1.58;;;7.20;99.90;;;;;;4843571;29;20101;-90
2023/01/15 00:11:25;;;;;;;13.35;2.45;;;7.20;99.90;;;;;;4844264;29;20487;-90
2023/01/15 00:13:51;;;;;;;9.75;1.58;;;7.20;99.90;;;;;;4844372;29;20064;-90
2023/01/15 00:16:22;;;;;;;10.38;1.55;;;7.20;99.90;;;;;;4860456;29;20042;-91
2023/01/15 00:18:58;;;;;;;12.32;1.67;;;7.20;99.90;;;;;;4833252;29;20050;-90
2023/01/15 00:21:26;;;;;;;7.10;1.27;;;7.20;99.90;;;;;;4843393;29;20053;-90
2023/01/15 00:29:22;;;;;;;15.07;1.92;;;7.20;99.90;;;;;;4860381;29;20079;-91
2023/01/15 00:32:07;;;;;;;7.97;1.55;;;7.10;99.90;;;;;;4860725;29;20590;-90
2023/01/15 00:34:33;;;;;;;9.93;1.58;;;7.10;99.90;;;;;;4860698;29;20052;-90
2023/01/15 00:36:59;;;;;;;11.60;1.83;;;7.10;99.90;;;;;;4843672;29;20056;-90
2023/01/15 00:39:28;;;;;;;16.23;1.73;;;7.10;99.90;;;;;;4842669;29;20046;-90
2023/01/15 00:41:54;;;;;;;13.55;2.10;;;7.20;99.90;;;;;;4843812;29;20082;-90
2023/01/15 00:44:20;;;;;;;10.60;1.92;;;7.10;99.90;;;;;;4860480;29;20088;-89
2023/01/15 00:46:46;;;;;;;13.15;2.00;;;7.10;99.90;;;;;;4847665;29;20140;-90
2023/01/15 00:49:12;;;;;;;14.65;2.08;;;7.10;99.90;;;;;;4863298;29;20050;-92
2023/01/15 00:51:38;;;;;;;14.65;2.03;;;7.10;99.90;;;;;;4847761;29;20551;-90
2023/01/15 00:54:04;;;;;;;11.98;1.67;;;7.10;99.90;;;;;;4864524;29;20041;-90
2023/01/15 00:56:30;;;;;;;11.65;1.90;;;7.10;99.90;;;;;;4846687;29;20076;-91
2023/01/15 00:58:56;;;;;;;9.70;1.90;;;7.10;99.90;;;;;;4847205;29;20422;-90
2023/01/15 01:01:21;;;;;;;19.23;2.10;;;7.10;99.90;;;;;;4862111;29;20046;-90
2023/01/15 01:03:49;;;;;;;15.65;2.00;;;7.10;99.90;;;;;;4847840;29;20565;-91
2023/01/15 01:06:15;;;;;;;14.25;2.03;;;7.10;99.90;;;;;;4863975;29;20121;-91
2023/01/15 01:08:42;;;;;;;12.90;1.88;;;7.10;99.90;;;;;;4846835;29;20052;-90
2023/01/15 01:11:09;;;;;;;13.48;1.85;;;7.10;99.90;;;;;;4847136;29;20049;-91
2023/01/15 01:13:36;;;;;;;16.15;2.10;;;7.10;99.90;;;;;;4847412;29;20060;-90
2023/01/15 01:16:03;;;;;;;13.68;2.08;;;7.10;99.90;;;;;;4862901;29;20045;-89
2023/01/15 01:18:28;;;;;;;11.05;1.83;;;7.10;99.90;;;;;;4847052;29;20434;-89
2023/01/15 01:20:54;;;;;;;11.60;2.22;;;7.10;99.90;;;;;;4847045;29;20128;-90
2023/01/15 01:23:22;;;;;;;16.13;2.03;;;7.10;99.90;;;;;;4863150;29;20125;-90
2023/01/15 01:25:48;;;;;;;13.00;2.38;;;7.10;99.90;;;;;;4864184;29;20049;-89
2023/01/15 01:28:14;;;;;;;10.40;1.92;;;7.00;99.90;;;;;;4863058;29;20060;-91
2023/01/15 01:30:40;;;;;;;10.98;1.77;;;7.10;99.90;;;;;;4846627;29;20049;-91
2023/01/15 01:33:06;;;;;;;13.73;1.80;;;7.00;99.90;;;;;;4847293;29;20081;-90
2023/01/15 01:35:32;;;;;;;13.65;1.98;;;7.10;99.90;;;;;;4847798;29;20085;-90
2023/01/15 01:37:58;;;;;;;12.43;2.17;;;7.00;99.90;;;;;;4844830;29;20577;-90
2023/01/15 01:40:23;;;;;;;17.13;3.33;;;7.00;99.90;;;;;;4863341;29;20044;-90
2023/01/15 01:42:49;;;;;;;12.32;2.20;;;7.00;99.90;;;;;;4846908;29;20053;-91
2023/01/15 01:45:23;;;;;;;16.33;3.05;;;7.00;99.90;;;;;;4862635;29;20073;-89
2023/01/15 01:47:50;;;;;;;16.23;3.15;;;7.00;99.90;;;;;;4846484;29;20228;-90
2023/01/15 01:50:16;;;;;;;13.70;2.40;;;7.00;99.90;;;;;;4846851;29;20049;-90
2023/01/15 01:52:43;;;;;;;13.93;2.03;;;7.00;99.90;;;;;;4846236;29;20506;-90
2023/01/15 01:55:16;;;;;;;13.13;1.88;;;6.90;99.90;;;;;;4863009;29;20132;-89
2023/01/15 01:57:42;;;;;;;13.95;2.10;;;7.00;99.90;;;;;;4844197;29;20046;-91
2023/01/15 02:00:10;;;;;;;14.07;2.45;;;6.90;99.90;;;;;;4846378;29;20057;-89
2023/01/15 02:02:37;;;;;;;11.82;2.20;;;6.90;99.90;;;;;;4837895;29;20058;-90
2023/01/15 02:05:07;;;;;;;14.30;2.30;;;6.90;99.90;;;;;;4835456;29;20053;-90
2023/01/15 02:07:33;;;;;;;11.52;2.05;;;6.90;99.90;;;;;;4846103;29;20502;-90
2023/01/15 02:09:59;;;;;;;16.20;2.13;;;6.90;99.90;;;;;;4862956;29;20060;-89
2023/01/15 02:12:34;;;;;;;12.98;2.05;;;6.90;99.90;;;;;;4845794;29;20049;-91
2023/01/15 02:15:46;;;;;;;12.30;2.00;;;6.90;99.90;;;;;;4863026;29;20045;-90
2023/01/15 02:18:26;;;;;;;13.43;2.20;;;6.90;99.90;;;;;;4838879;29;20148;-90
2023/01/15 02:20:59;;;;;;;10.70;1.95;;;6.90;99.90;;;;;;4845667;29;20056;-90
2023/01/15 02:23:37;;;;;;;13.88;2.10;;;6.90;99.90;;;;;;4862524;29;20424;-90
2023/01/15 02:26:21;;;;;;;18.10;2.20;;;6.90;99.90;;;;;;4862259;29;20105;-91
2023/01/15 02:28:48;;;;;;;15.95;2.03;;;6.90;99.90;;;;;;4845789;29;20449;-90
2023/01/15 02:31:31;;;;;;;11.98;1.77;;;6.90;99.90;;;;;;4845857;29;20045;-90
2023/01/15 02:34:05;;;;;;;13.30;2.47;;;6.90;99.90;;;;;;4862232;29;20050;-90
2023/01/15 02:36:38;;;;;;;16.23;2.67;;;6.90;99.90;;;;;;4861397;29;20084;-89
2023/01/15 02:39:08;;;;;;;12.73;2.00;;;6.90;99.90;;;;;;4861669;29;20048;-90
2023/01/15 02:41:40;;;;;;;15.85;2.30;;;6.90;99.90;;;;;;4845372;29;20042;-90
2023/01/15 02:44:08;;;;;;;12.35;2.33;;;6.90;99.90;;;;;;4845337;29;20049;-90
2023/01/15 02:46:36;;;;;;;16.90;2.38;;;6.90;99.90;;;;;;4845827;29;20084;-91
2023/01/15 02:49:06;;;;;;;12.35;1.90;;;6.90;99.90;;;;;;4861419;29;20046;-90
2023/01/15 02:51:40;;;;;;;14.05;2.15;;;6.90;99.90;;;;;;4845657;29;20089;-91
2023/01/15 02:54:11;;;;;;;14.98;2.30;;;6.90;99.90;;;;;;4844747;29;20102;-89
2023/01/15 02:56:40;;;;;;;14.95;2.33;;;6.90;99.90;;;;;;4862315;29;20398;-91
2023/01/15 02:59:16;;;;;;;14.68;1.95;;;6.90;99.90;;;;;;4844934;29;20144;-90
2023/01/15 03:01:52;;;;;;;17.10;2.63;;;6.90;99.90;;;;;;4845033;29;20060;-89
2023/01/15 03:04:29;;;;;;;15.80;2.20;;;6.90;99.90;;;;;;4845401;29;20518;-90
2023/01/15 03:07:08;;;;;;;13.20;2.20;;;6.90;99.90;;;;;;4845799;29;20054;-91
2023/01/15 03:09:35;;;;;;;14.10;2.40;;;6.80;99.90;;;;;;4842997;29;20050;-91
2023/01/15 03:12:04;;;;;;;12.27;2.28;;;6.80;99.90;;;;;;4840016;29;20098;-91
2023/01/15 03:14:37;;;;;;;12.60;1.95;;;6.80;99.90;;;;;;4861970;29;20045;-90
2023/01/15 03:17:38;;;;;;;18.25;2.33;;;6.80;99.90;;;;;;4844767;29;20141;-89
2023/01/15 03:20:11;;;;;;;17.90;2.53;;;6.80;99.90;;;;;;4854012;29;20066;-90
2023/01/15 03:22:43;;;;;;;14.50;2.70;;;6.80;99.90;;;;;;4844882;29;20064;-90
2023/01/15 03:25:24;;;;;;;14.98;2.15;;;6.80;99.90;;;;;;4844781;29;20045;-90
2023/01/15 03:27:54;;;;;;;16.17;2.35;;;6.80;99.90;;;;;;4861179;29;20499;-90
2023/01/15 03:30:23;;;;;;;17.20;2.20;;;6.80;99.90;;;;;;4844089;29;20537;-91
2023/01/15 03:32:49;;;;;;;16.13;2.50;;;6.80;99.90;;;;;;4844951;29;20053;-90
2023/01/15 03:35:48;;;;;;;13.48;2.40;;;6.80;99.90;;;;;;4861243;29;20048;-91
2023/01/15 03:38:18;;;;;;;16.27;1.98;;;6.80;99.90;;;;;;4860641;29;20427;-90
2023/01/15 03:41:32;;;;;;;14.93;2.28;;;6.80;99.90;;;;;;4845376;29;20139;-91
2023/01/15 03:44:34;;;;;;;13.02;2.25;;;6.80;99.90;;;;;;4845285;29;20057;-91
2023/01/15 03:47:03;;;;;;;13.93;2.30;;;6.70;99.90;;;;;;4845271;29;20145;-91
2023/01/15 03:49:40;;;;;;;15.10;2.53;;;6.70;99.90;;;;;;4860780;29;20516;-90
2023/01/15 03:52:44;;;;;;;14.32;2.08;;;6.70;99.90;;;;;;4844179;29;20064;-91
2023/01/15 03:55:09;;;;;;;;;;;6.70;99.90;;;;;;4826182;29;20077;-91
2023/01/15 03:57:44;;;;;;;15.15;2.40;;;6.60;99.90;;;;;;4857186;29;19979;-92
2023/01/15 04:00:31;;;;;;;12.93;2.28;;;6.70;99.90;;;;;;4860811;29;20057;-91
2023/01/15 04:02:58;;;;;;;14.15;1.95;;;6.70;99.90;;;;;;4843054;29;20116;-90
2023/01/15 04:05:25;;;;;;;15.07;2.42;;;6.70;99.90;;;;;;4825999;29;20145;-91
2023/01/15 04:07:53;;;;;;;12.20;2.15;;;6.70;99.90;;;;;;4847264;29;20487;-90
2023/01/15 04:10:19;;;;;;;16.55;2.30;;;6.60;99.90;;;;;;4844834;29;20404;-91
2023/01/15 04:12:44;;;;;;;13.52;2.35;;;6.70;99.90;;;;;;4844163;29;20078;-90
2023/01/15 04:15:15;;;;;;;15.93;2.33;;;6.60;99.90;;;;;;4844592;29;20045;-91
2023/01/15 04:17:40;;;;;;;17.88;2.60;;;6.60;99.90;;;;;;4860677;29;20042;-90
2023/01/15 04:20:08;;;;;;;13.27;2.20;;;6.60;99.90;;;;;;4861358;29;20072;-91
2023/01/15 04:22:34;;;;;;;19.10;2.55;;;6.60;99.90;;;;;;4864875;29;20073;-91
2023/01/15 04:25:05;;;;;;;17.77;2.25;;;6.60;99.90;;;;;;4864583;29;20081;-91
2023/01/15 04:27:31;;;;;;;14.48;2.13;;;6.60;99.90;;;;;;4847624;29;20062;-90
2023/01/15 04:29:57;;;;;;;14.82;2.20;;;6.60;99.90;;;;;;4848424;29;20124;-90
2023/01/15 04:32:23;;;;;;;13.55;1.92;;;6.60;99.90;;;;;;4842407;29;20170;-91
2023/01/15 04:34:49;;;;;;;16.02;2.22;;;6.60;99.90;;;;;;4830170;29;20514;-91
2023/01/15 04:37:17;;;;;;;14.50;2.30;;;6.60;99.90;;;;;;4846173;29;20070;-91
2023/01/15 04:39:43;;;;;;;12.65;2.20;;;6.60;99.90;;;;;;4847309;29;20132;-89
2023/01/15 04:44:56;;;;;;;14.65;2.05;;;6.60;99.90;;;;;;4863670;29;20049;-91
2023/01/15 04:47:22;;;;;;;13.07;2.33;;;6.60;99.90;;;;;;4847277;29;20045;-90
2023/01/15 04:49:48;;;;;;;12.57;2.10;;;6.50;99.90;;;;;;4864555;29;20419;-91
2023/01/15 04:52:14;;;;;;;13.82;2.08;;;6.50;99.90;;;;;;4864514;29;20041;-93
2023/01/15 04:54:40;;;;;;;17.00;2.03;;;6.50;99.90;;;;;;4848053;29;20133;-91
2023/01/15 04:57:06;;;;;;;15.40;2.30;;;6.50;99.90;;;;;;4848362;29;20470;-90
2023/01/15 04:59:32;;;;;;;15.18;2.22;;;6.50;99.90;;;;;;4847505;29;20061;-90
2023/01/15 05:01:57;;;;;;;15.93;2.17;;;6.50;99.90;;;;;;4847510;29;20380;-90
2023/01/15 05:04:23;;;;;;;14.52;2.47;;;6.50;99.90;;;;;;4847596;29;20050;-92
2023/01/15 05:06:49;;;;;;;12.07;1.88;;;6.50;99.90;;;;;;4847737;29;20081;-90
2023/01/15 05:09:15;;;;;;;14.85;2.30;;;6.50;99.90;;;;;;4846451;29;20094;-90
2023/01/15 05:11:40;;;;;;;12.85;2.00;;;6.50;99.90;;;;;;4848054;29;20050;-91
2023/01/15 05:14:06;;;;;;;14.13;2.40;;;6.50;99.90;;;;;;4847730;29;20129;-90
2023/01/15 05:16:33;;;;;;;13.50;2.17;;;6.50;99.90;;;;;;4863738;29;20125;-90
2023/01/15 05:19:02;;;;;;;15.57;2.30;;;6.50;99.90;;;;;;4863895;29;20052;-90
2023/01/15 05:21:32;;;;;;;14.50;2.50;;;6.50;99.90;;;;;;4846950;29;20490;-90
2023/01/15 05:24:00;;;;;;;18.85;2.58;;;6.40;99.90;;;;;;4847754;29;20064;-91
2023/01/15 05:26:31;;;;;;;14.38;2.10;;;6.40;99.90;;;;;;4863608;29;20519;-90
2023/01/15 05:28:58;;;;;;;10.68;1.85;;;6.40;99.90;;;;;;4846374;29;20049;-92
2023/01/15 05:31:24;;;;;;;13.02;2.30;;;6.40;99.90;;;;;;4846811;29;20049;-90
2023/01/15 05:33:51;;;;;;;16.60;2.05;;;6.40;99.90;;;;;;4847005;29;20494;-89
2023/01/15 05:36:23;;;;;;;13.45;2.00;;;6.40;99.90;;;;;;4846574;29;20045;-92
2023/01/15 05:38:49;;;;;;;13.82;2.10;;;6.40;99.90;;;;;;4847062;29;20057;-91
2023/01/15 05:44:05;;;;;;;14.13;2.10;;;6.30;99.90;;;;;;4863276;29;20082;-91
2023/01/15 05:46:32;;;;;;;10.98;1.83;;;6.30;99.90;;;;;;4862706;29;20189;-90
2023/01/15 05:49:04;;;;;;;13.43;2.15;;;6.30;99.90;;;;;;4836002;29;20046;-90
2023/01/15 05:51:29;;;;;;;18.88;2.22;;;6.30;99.90;;;;;;4842946;29;20045;-90
2023/01/15 05:53:58;;;;;;;10.05;2.00;;;6.30;99.90;;;;;;4844995;29;20053;-90
2023/01/15 05:56:24;;;;;;;12.52;2.08;;;6.30;99.90;;;;;;4860186;29;20120;-90
2023/01/15 05:58:50;;;;;;;14.00;2.25;;;6.20;99.90;;;;;;4862209;29;20467;-91
2023/01/15 06:01:15;;;;;;;10.70;2.10;;;6.20;99.90;;;;;;4863264;29;20045;-89
2023/01/15 06:03:41;;;;;;;12.73;1.77;;;6.20;99.90;;;;;;4845575;29;20057;-90
2023/01/15 06:06:14;;;;;;;13.82;1.65;;;6.20;99.90;;;;;;4846347;29;20052;-90
2023/01/15 06:08:40;;;;;;;;;;;6.20;99.90;;;;;;4863193;29;20133;-91
2023/01/15 06:11:06;;;;;;;10.85;2.00;;;6.10;99.90;;;;;;4862675;29;19971;-90
2023/01/15 06:13:32;;;;;;;15.65;2.33;;;6.10;99.90;;;;;;4861979;29;20071;-91
2023/01/15 06:16:01;;;;;;;12.23;1.83;;;6.10;99.90;;;;;;4862348;29;20181;-90
2023/01/15 06:18:30;;;;;;;15.05;2.08;;;6.10;99.90;;;;;;4839242;29;20110;-90
2023/01/15 06:20:55;;;;;;;11.77;1.83;;;6.10;99.90;;;;;;4827994;29;20518;-92
2023/01/15 06:23:21;;;;;;;11.27;1.85;;;6.10;99.90;;;;;;4844216;29;20046;-90
2023/01/15 06:25:47;;;;;;;17.60;2.20;;;6.10;99.90;;;;;;4844234;29;20125;-90
2023/01/15 06:28:15;;;;;;;11.50;1.73;;;6.10;99.90;;;;;;4828592;29;20564;-90
2023/01/15 06:30:41;;;;;;;11.15;2.00;;;6.10;99.90;;;;;;4843994;29;20125;-90
2023/01/15 06:33:06;;;;;;;13.52;2.13;;;6.10;99.90;;;;;;4827090;29;20144;-90
2023/01/15 06:35:32;;;;;;;17.50;2.13;;;6.10;99.90;;;;;;4844187;29;20046;-91
2023/01/15 06:37:58;;;;;;;14.18;2.03;;;6.00;99.90;;;;;;4840641;29;20057;-90
2023/01/15 06:40:25;;;;;;;13.68;2.38;;;6.10;99.90;;;;;;4845050;29;20562;-91
2023/01/15 06:48:28;;;;;;;19.02;1.95;;;6.00;99.90;;;;;;4860592;29;20056;-91
2023/01/15 06:50:54;;;;;;;12.77;2.20;;;5.90;99.90;;;;;;4862305;29;20096;-90
2023/01/15 06:53:22;;;;;;;18.17;2.92;;;5.90;99.90;;;;;;4845319;29;20085;-91
2023/01/15 06:55:48;;;;;;;11.85;1.83;;;5.90;99.90;;;;;;4845460;29;20140;-91
2023/01/15 06:58:13;;;;;;;16.40;2.42;;;5.90;99.90;;;;;;4844877;29;20128;-90
2023/01/15 07:00:43;;;;;;;11.88;1.90;;;5.90;99.90;;;;;;4861056;29;20082;-91
2023/01/15 07:03:13;;;;;;;16.70;2.38;;;5.90;99.90;;;;;;4835995;29;20128;-92
2023/01/15 07:05:39;;;;;;;11.50;1.92;;;5.90;99.90;;;;;;4860224;29;20045;-91
2023/01/15 07:08:04;;;;;;;12.80;1.88;;;5.80;99.90;;;;;;4860696;29;20097;-91
2023/01/15 07:10:30;;;;;;;15.35;1.90;;;5.80;99.90;;;;;;4844827;29;20140;-90
2023/01/15 07:12:55;;;;;;;12.82;2.03;;;5.90;99.90;;;;;;4861975;29;20415;-91
2023/01/15 07:15:21;;;;;;;11.60;1.88;;;5.80;99.90;;;;;;4844913;29;20058;-92
2023/01/15 07:17:46;;;;;;;11.73;1.90;;;5.80;99.90;;;;;;4845697;29;20121;-91
2023/01/15 07:20:12;;;;;;;11.32;1.90;;;5.80;99.90;;;;;;4845703;29;20057;-91
2023/01/15 07:22:38;;;;;;;11.77;1.70;;;5.80;99.90;;;;;;4844536;29;20052;-90
2023/01/15 07:25:04;;;;;;;10.88;1.65;;;5.80;99.90;;;;;;4861899;29;20046;-91
2023/01/15 07:27:29;;;;;;;13.88;1.90;;;5.80;99.90;;;;;;4862225;29;20053;-89
2023/01/15 07:40:30;;;;;;;8.85;1.67;;;5.70;99.90;;;;;;5356804;23;19924;-95
2023/01/15 07:51:14;;;;;;;18.77;1.90;;;5.70;99.80;;;;;;4867900;29;20057;-92
2023/01/15 07:53:42;;;;;;;9.48;1.42;;;5.60;99.50;;;;;;4860783;29;20046;-94
2023/01/15 07:56:08;;;;;;;10.57;2.00;;;5.60;99.30;;;;;;4859597;29;20075;-91
2023/01/15 07:58:34;;;;;;;11.25;2.00;;;5.60;99.30;;;;;;4890783;29;20546;-91
2023/01/15 08:00:59;;;;;;;10.43;1.77;;;5.60;99.20;;;;;;4873004;29;20045;-93
2023/01/15 08:03:25;;;;;;;12.43;1.58;;;5.60;99.30;;;;;;4879475;29;20045;-91
2023/01/15 08:05:50;;;;;;;10.82;1.83;;;5.60;99.40;;;;;;4879094;29;20048;-92
2023/01/15 08:08:17;;;;;;;10.93;1.48;;;5.60;99.10;;;;;;4878943;29;20041;-91
2023/01/15 08:15:11;;;;;;;14.15;1.92;;;5.60;99.20;;;;;;4878241;29;20086;-91
2023/01/15 08:16:14;;;;;;;13.57;1.65;;;5.60;99.20;;;;;;4876755;29;20128;-92
2023/01/15 08:18:39;;;;;;;10.88;1.58;;;5.50;99.30;;;;;;4879282;29;20045;-92
2023/01/15 08:21:05;;;;;;;10.15;1.70;;;5.60;99.40;;;;;;4875802;29;20072;-92
2023/01/15 08:23:31;;;;;;;15.10;2.15;;;5.60;99.40;;;;;;4859527;29;20401;-91
2023/01/15 08:26:00;;;;;;;10.48;1.90;;;5.60;99.40;;;;;;4860345;29;20046;-91
2023/01/15 08:28:34;;;;;;;11.02;1.92;;;5.60;99.30;;;;;;4862576;29;20053;-90
2023/01/15 08:31:05;;;;;;;10.82;2.08;;;5.60;99.20;;;;;;4879778;29;20087;-90
2023/01/15 08:33:31;;;;;;;12.23;1.77;;;5.60;99.20;;;;;;4862020;29;20059;-90
2023/01/15 08:35:57;;;;;;;12.43;1.95;;;5.60;99.20;;;;;;4865258;29;20041;-90
2023/01/15 08:38:22;;;;;;;13.32;1.73;;;5.60;99.10;;;;;;4870177;29;20049;-89
2023/01/15 08:40:58;;;;;;;13.32;2.22;;;5.70;98.90;;;;;;4859657;29;20094;-93
2023/01/15 08:43:26;;;;;;;12.25;1.63;;;5.70;98.90;;;;;;4860616;29;20132;-94
2023/01/15 08:45:51;;;;;;;11.18;2.17;;;5.70;98.70;;;;;;4861306;29;20517;-92
2023/01/15 08:48:18;;;;;;;15.48;2.28;;;5.80;98.70;;;;;;4861655;29;20050;-94
2023/01/15 08:50:44;;;;;;;14.00;1.75;;;5.80;98.80;;;;;;4883107;29;20144;-96
2023/01/15 08:53:33;;;;;;;14.88;1.77;;;5.80;98.90;;;;;;4880071;29;20061;-96
2023/01/15 08:55:59;;;;;;;11.93;1.80;;;5.80;98.90;;;;;;4881487;29;20041;-95
2023/01/15 08:58:31;;;;;;;11.60;1.80;;;5.80;99.10;;;;;;4883222;29;20068;-94
2023/01/15 09:01:14;;;;;;;11.85;1.60;;;5.80;99.20;;;;;;4880594;29;20060;-96
2023/01/15 09:03:45;;;;;;;11.85;1.52;;;5.80;99.30;;;;;;4876356;29;20034;-96
2023/01/15 09:06:27;;;;;;;13.50;1.50;;;5.80;99.50;;;;;;4865522;29;20066;-96
2023/01/15 09:09:01;;;;;;;12.43;1.90;;;5.70;99.60;;;;;;4887386;29;20049;-96
2023/01/15 09:11:27;;;;;;;11.48;2.25;;;5.80;99.70;;;;;;4887891;29;20076;-96
2023/01/15 09:13:53;;;;;;;12.77;2.20;;;5.70;99.80;;;;;;4885176;29;20041;-94
2023/01/15 09:16:22;;;;;;;14.07;2.08;;;5.70;99.90;;;;;;4876952;29;20045;-95
2023/01/15 09:18:55;;;;;;;10.27;1.77;;;5.60;99.90;;;;;;4894747;29;20053;-93
2023/01/15 09:21:23;;;;;;;13.27;1.77;;;5.70;99.90;;;;;;4865350;29;20104;-91
2023/01/15 09:23:48;;;;;;;11.48;1.98;;;5.70;99.90;;;;;;4867705;29;20490;-94
2023/01/15 09:26:40;;;;;;;13.75;1.80;;;5.60;99.90;;;;;;4873132;29;20105;-93
2023/01/15 09:29:07;;;;;;;13.45;1.85;;;5.60;99.90;;;;;;4860439;29;20061;-94
2023/01/15 09:31:38;;;;;;;9.70;1.45;;;5.60;99.90;;;;;;4894681;29;20037;-95
2023/01/15 09:34:10;;;;;;;7.35;1.52;;;5.60;99.90;;;;;;4863408;29;20083;-94
2023/01/15 09:36:38;;;;;;;12.60;1.60;;;5.60;99.90;;;;;;4863995;29;20131;-92
2023/01/15 09:39:10;;;;;;;10.38;1.77;;;5.60;99.90;;;;;;4864879;29;20090;-96
2023/01/15 09:42:08;;;;;;;14.27;1.70;;;5.60;99.90;;;;;;4866098;29;20403;-94
2023/01/15 09:44:52;;;;;;;13.13;1.70;;;5.60;99.90;;;;;;4874086;29;20128;-93
2023/01/15 09:47:35;;;;;;;14.90;2.03;;;5.50;99.90;;;;;;4881257;29;20053;-91
2023/01/15 09:50:39;;;;;;;13.32;1.98;;;5.50;99.90;;;;;;4883085;29;20059;-94
2023/01/15 09:53:28;;;;;;;14.20;1.90;;;5.50;99.90;;;;;;4881712;29;20092;-93
2023/01/15 09:55:54;;;;;;;13.52;1.88;;;5.50;99.90;;;;;;4865607;29;20056;-94
2023/01/15 09:58:34;;;;;;;12.18;1.70;;;5.60;99.90;;;;;;4864370;29;20038;-94
2023/01/15 10:01:00;;;;;;;8.45;1.67;;;5.60;99.90;;;;;;4865227;29;20129;-92
2023/01/15 10:03:32;;;;;;;10.88;1.60;;;5.70;99.90;;;;;;4862079;29;20084;-95
2023/01/15 10:06:25;;;;;;;14.93;1.88;;;5.70;99.90;;;;;;4897799;29;20499;-94
2023/01/15 10:09:10;;;;;;;10.43;2.00;;;5.70;99.90;;;;;;4845654;29;20484;-96
2023/01/15 10:14:51;;;;;;;14.77;1.90;;;5.70;99.90;;;;;;4890283;29;20236;-94
2023/01/15 10:17:23;;;;;;;12.82;1.77;;;5.70;99.90;;;;;;4843395;29;20046;-92
2023/01/15 10:19:52;;;;;;;11.70;2.03;;;5.70;99.90;;;;;;4854565;29;20037;-92
2023/01/15 10:22:33;;;;;;;9.90;1.48;;;5.70;99.90;;;;;;4881675;29;20052;-92
2023/01/15 10:25:03;;;;;;;14.05;2.35;;;5.70;99.90;;;;;;4864997;29;20076;-92
2023/01/15 10:27:32;;;;;;;17.10;2.10;;;5.70;99.90;;;;;;4864834;29;20092;-93
2023/01/15 10:30:05;;;;;;;16.33;1.90;;;5.70;99.90;;;;;;4865223;29;20545;-94
2023/01/15 10:32:54;;;;;;;14.32;2.40;;;5.80;99.90;;;;;;4865363;29;20041;-93
2023/01/15 10:35:20;;;;;;;16.38;3.08;;;5.70;99.90;;;;;;4876806;29;20047;-93
2023/01/15 10:38:13;;;;;;;14.13;3.38;;;5.70;99.90;;;;;;4863768;29;20053;-93
2023/01/15 10:40:57;;;;;;;16.77;2.65;;;5.70;99.90;;;;;;4892848;29;20104;-93
2023/01/15 10:43:54;;;;;;;10.63;2.22;;;5.70;99.90;;;;;;4861677;29;20049;-94
2023/01/15 10:46:36;;;;;;;13.00;1.92;;;5.70;99.90;;;;;;4859865;29;20052;-93
2023/01/15 10:49:17;;;;;;;12.68;2.25;;;5.70;99.90;;;;;;4867769;29;20049;-94
2023/01/15 10:51:45;;;;;;;17.10;2.75;;;5.70;99.90;;;;;;4880551;29;20049;-93
2023/01/15 10:54:16;;;;;;;16.00;2.85;;;5.70;99.90;;;;;;4879862;29;20406;-93
2023/01/15 10:57:00;;;;;;;14.60;2.85;;;5.70;99.90;;;;;;4881476;29;20093;-93
2023/01/15 10:59:46;;;;;;;15.82;2.67;;;5.70;99.90;;;;;;4881024;29;20045;-93
2023/01/15 11:02:28;;;;;;;10.13;1.80;;;5.70;99.90;;;;;;4881283;29;20101;-94
2023/01/15 11:04:53;;;;;;;13.20;2.45;;;5.70;99.90;;;;;;4865305;29;20065;-92
2023/01/15 11:07:50;;;;;;;16.38;2.72;;;5.60;99.90;;;;;;4861247;29;20041;-95
2023/01/15 11:10:20;;;;;;;15.93;2.60;;;5.60;99.90;;;;;;4861939;29;20135;-91
2023/01/15 11:21:16;;;;;;;16.30;2.65;;;5.70;99.90;;;;;;4871840;29;20177;-95
2023/01/15 11:23:43;;;;;;;17.13;2.63;;;5.70;99.90;;;;;;4862906;29;20539;-95
2023/01/15 11:26:15;;;;;;;16.17;2.30;;;5.70;99.90;;;;;;4862205;29;20049;-92
2023/01/15 11:28:42;;;;;;;18.60;2.35;;;5.70;99.90;;;;;;4877561;29;20048;-92
2023/01/15 11:31:09;;;;;;;17.50;2.90;;;5.80;99.90;;;;;;4879404;29;20053;-92
2023/01/15 11:33:39;;;;;;;16.58;2.03;;;5.80;99.90;;;;;;4879892;29;20131;-92
2023/01/15 11:36:23;;;;;;;14.18;1.95;;;5.80;99.90;;;;;;4870513;29;20105;-92
2023/01/15 11:38:55;;;;;;;17.73;2.13;;;5.90;99.90;;;;;;4865759;29;20063;-94
2023/01/15 11:52:56;;;;;;;18.60;2.33;;;6.20;99.90;;;;;;4880184;29;20053;-93
2023/01/15 11:55:25;;;;;;;20.08;2.45;;;6.30;99.90;;;;;;4859826;29;20073;-93
2023/01/15 11:57:51;;;;;;;13.88;2.30;;;6.40;99.90;;;;;;4861444;29;20112;-93
2023/01/15 12:04:34;;;;;;;19.63;2.50;;;6.50;99.90;;;;;;4854461;29;20478;-94
2023/01/15 12:07:02;;;;;;;17.85;3.13;;;6.50;99.90;;;;;;4815040;29;20063;-94
2023/01/15 12:10:06;;;;;;;14.70;2.42;;;6.70;99.90;;;;;;4870718;29;20438;-93
2023/01/15 12:12:49;;;;;;;17.00;2.30;;;6.70;99.90;;;;;;4876583;29;20065;-96
2023/01/15 12:15:29;;;;;;;14.45;2.40;;;6.80;99.90;;;;;;4862312;29;20045;-96
2023/01/15 12:18:08;;;;;;;16.40;2.72;;;6.80;99.90;;;;;;4870119;29;20057;-96
2023/01/15 12:21:51;;;;;;;16.55;2.45;;;6.90;99.90;;;;;;4907836;23;20106;-94
2023/01/15 12:24:56;;;;;;;19.83;2.80;;;6.90;99.90;;;;;;4828628;29;20050;-94
2023/01/15 12:27:40;;;;;;;14.35;2.00;;;6.90;99.90;;;;;;4858948;29;20053;-93
2023/01/15 12:30:11;;;;;;;;;;;7.00;99.90;;;;;;4851529;29;20142;-95
2023/01/15 12:32:42;;;;;;;14.43;2.10;;;7.00;99.90;;;;;;4863272;29;19923;-93
2023/01/15 12:35:40;;;;;;;17.50;2.38;;;7.00;99.90;;;;;;4870299;29;20074;-91
2023/01/15 12:38:36;;;;;;;12.38;2.47;;;7.10;99.90;;;;;;4842600;29;20050;-92
2023/01/15 12:48:01;;;;;;;14.38;2.60;;;7.20;99.90;;;;;;4863133;29;20049;-92
2023/01/15 12:50:52;;;;;;;15.45;2.45;;;7.20;99.90;;;;;;4838729;29;20113;-94
2023/01/15 12:56:35;;;;;;;16.13;2.50;;;7.20;99.90;;;;;;4864482;29;20054;-92
2023/01/15 12:59:25;;;;;;;11.38;2.00;;;7.30;99.90;;;;;;4837441;29;20533;-93
2023/01/15 13:02:50;;;;;;;15.32;2.55;;;7.30;99.90;;;;;;4861237;29;20053;-93
2023/01/15 13:05:39;;;;;;;12.13;2.72;;;7.30;99.60;;;;;;4776096;29;20185;-95
2023/01/15 13:08:29;;;;;;;16.55;2.63;;;7.30;99.60;;;;;;4802212;29;20053;-94
2023/01/15 13:10:55;;;;;;;20.30;2.42;;;7.40;99.60;;;;;;4861386;29;20057;-92
2023/01/15 13:13:30;;;;;;;12.27;2.17;;;7.40;99.60;;;;;;4864097;29;20045;-91
2023/01/15 13:16:03;;;;;;;12.15;2.25;;;7.40;99.50;;;;;;4863874;29;20722;-93
2023/01/15 13:18:46;;;;;;;15.47;2.50;;;7.40;99.30;;;;;;4847892;29;20052;-91
2023/01/15 13:21:15;;;;;;;14.27;2.47;;;7.50;99.30;;;;;;4847447;29;20072;-92
2023/01/15 13:23:57;;;;;;;23.23;2.95;;;7.40;99.30;;;;;;4864189;29;20041;-92
2023/01/15 13:26:52;;;;;;;17.55;2.60;;;7.40;99.40;;;;;;4848023;29;20113;-93
2023/01/15 13:29:42;;;;;;;18.83;2.80;;;7.40;99.50;;;;;;4845693;29;20483;-92
2023/01/15 13:32:17;;;;;;;13.57;2.35;;;7.40;99.70;;;;;;4847834;29;20084;-93
2023/01/15 13:35:07;;;;;;;17.42;2.55;;;7.30;99.80;;;;;;4847995;29;20053;-94
2023/01/15 13:37:42;;;;;;;17.95;2.20;;;7.30;99.90;;;;;;4847458;29;20045;-94
2023/01/15 13:40:39;;;;;;;10.18;1.63;;;7.10;99.90;;;;;;4847083;29;20102;-93
2023/01/15 13:43:07;;;;;;;10.63;1.88;;;7.00;99.90;;;;;;4847193;29;20056;-89
2023/01/15 13:45:41;;;;;;;9.23;1.70;;;6.90;99.90;;;;;;4863164;29;20050;-91
2023/01/15 13:48:26;;;;;;;9.43;1.58;;;6.80;99.90;;;;;;4846019;29;20109;-89
2023/01/15 13:50:57;;;;;;;16.83;2.67;;;6.70;99.90;;;;;;4846662;29;20064;-91
2023/01/15 13:53:31;;;;;;;13.70;2.47;;;6.60;99.90;;;;;;4845405;29;20050;-91
2023/01/15 13:56:11;;;;;;;14.13;3.88;;;6.60;99.90;;;;;;4846331;29;20042;-90
2023/01/15 13:58:51;;;;;;;6.00;1.30;;;6.50;99.90;;;;;;4862804;29;20117;-92
2023/01/15 14:01:17;;;;;;;10.25;1.90;;;6.40;99.90;;;;;;4863007;29;20559;-92
2023/01/15 14:04:12;;;;;;;6.45;1.20;;;6.40;99.90;;;;;;4862889;29;20132;-90
2023/01/15 14:06:47;;;;;;;4.88;0.80;;;6.30;99.90;;;;;;4846378;29;20042;-91
2023/01/15 14:09:16;;;;;;;4.10;0.80;;;6.30;99.90;;;;;;4862264;29;20409;-89
2023/01/15 14:11:44;;;;;;;5.32;0.90;;;6.20;99.90;;;;;;4862773;29;20129;-90
2023/01/15 14:14:10;;;;;;;4.32;0.65;;;6.20;99.90;;;;;;4846155;29;20049;-90
2023/01/15 14:16:53;;;;;;;3.88;0.85;;;6.20;99.90;;;;;;4862551;29;20048;-92
2023/01/15 14:20:00;;;;;;;6.35;1.10;;;6.20;99.90;;;;;;4846328;29;20049;-91
2023/01/15 14:22:42;;;;;;;5.90;0.98;;;6.10;99.90;;;;;;4846076;29;20045;-91
2023/01/15 14:25:17;;;;;;;4.45;1.05;;;6.10;99.90;;;;;;4844957;29;20603;-90
2023/01/15 14:27:44;;;;;;;6.78;1.00;;;6.10;99.90;;;;;;4862660;29;20053;-91
2023/01/15 14:30:43;;;;;;;6.88;1.20;;;6.20;99.90;;;;;;4845253;29;20486;-89
2023/01/15 14:33:42;;;;;;;8.80;1.42;;;6.20;99.90;;;;;;4846024;29;20077;-90